createdAt,value
2023-02-14T00:00:05.837Z,97
2023-02-14T00:00:37.305Z,92
2023-02-14T00:01:08.316Z,92
2023-02-14T00:01:41.344Z,92
2023-02-14T00:02:12.426Z,92
2023-02-14T00:02:45.536Z,92
2023-02-14T00:03:16.387Z,92
2023-02-14T00:03:49.314Z,92
2023-02-14T00:04:20.652Z,92
2023-02-14T00:04:53.377Z,92
2023-02-14T00:05:24.651Z,92
2023-02-14T00:05:57.282Z,92
2023-02-14T00:06:28.111Z,85
2023-02-14T00:07:01.423Z,85
2023-02-14T00:07:32.405Z,85
2023-02-14T00:08:05.463Z,85
2023-02-14T00:08:36.344Z,85
2023-02-14T00:09:09.300Z,116
2023-02-14T00:09:40.468Z,116
2023-02-14T00:10:13.399Z,116
2023-02-14T00:10:44.441Z,116
2023-02-14T00:11:17.270Z,116
2023-02-14T00:11:48.392Z,116
2023-02-14T00:12:21.482Z,116
2023-02-14T00:12:52.386Z,116
2023-02-14T00:13:25.042Z,139
2023-02-14T00:13:56.357Z,139
2023-02-14T00:14:29.411Z,139
2023-02-14T00:15:01.862Z,145
2023-02-14T00:15:33.359Z,145
2023-02-14T00:16:04.480Z,145
2023-02-14T00:16:37.262Z,145
2023-02-14T00:17:08.344Z,145
2023-02-14T00:17:41.333Z,171
2023-02-14T00:18:12.496Z,148
2023-02-14T00:18:45.259Z,148
2023-02-14T00:19:16.300Z,148
2023-02-14T00:19:49.101Z,148
2023-02-14T00:20:20.824Z,148
2023-02-14T00:20:52.981Z,139
2023-02-14T00:21:24.358Z,139
2023-02-14T00:21:57.356Z,139
2023-02-14T00:22:28.500Z,139
2023-02-14T00:23:01.572Z,139
2023-02-14T00:23:32.418Z,139
2023-02-14T00:24:05.276Z,148
2023-02-14T00:24:36.540Z,130
2023-02-14T00:25:09.603Z,130
2023-02-14T00:25:40.479Z,130
2023-02-14T00:26:13.372Z,130
2023-02-14T00:26:44.430Z,130
2023-02-14T00:27:17.476Z,130
2023-02-14T00:27:48.539Z,130
2023-02-14T00:28:21.006Z,130
2023-02-14T00:28:52.339Z,130
2023-02-14T00:29:25.279Z,130
2023-02-14T00:29:56.555Z,164
2023-02-14T00:30:30.569Z,164
2023-02-14T00:31:00.710Z,188
2023-02-14T00:31:33.400Z,164
2023-02-14T00:32:04.384Z,170
2023-02-14T00:32:37.248Z,170
2023-02-14T00:33:08.357Z,170
2023-02-14T00:33:41.231Z,170
2023-02-14T00:34:12.292Z,170
2023-02-14T00:34:45.187Z,170
2023-02-14T00:35:16.802Z,170
2023-02-14T00:35:49.094Z,170
2023-02-14T00:36:20.475Z,170
2023-02-14T00:36:53.438Z,170
2023-02-14T00:38:28.438Z,166
2023-02-14T00:39:01.433Z,170
2023-02-14T00:39:32.484Z,166
2023-02-14T00:40:05.652Z,166
2023-02-14T00:40:36.601Z,166
2023-02-14T00:41:09.497Z,179
2023-02-14T00:41:40.431Z,166
2023-02-14T00:42:13.548Z,156
2023-02-14T00:42:44.539Z,160
2023-02-14T00:43:17.017Z,166
2023-02-14T00:43:48.418Z,171
2023-02-14T00:44:22.095Z,171
2023-02-14T00:44:52.550Z,166
2023-02-14T00:45:26.418Z,171
2023-02-14T00:45:56.785Z,179
2023-02-14T00:46:29.356Z,183
2023-02-14T00:47:00.444Z,161
2023-02-14T00:47:33.177Z,163
2023-02-14T00:48:04.395Z,179
2023-02-14T00:48:37.346Z,179
2023-02-14T00:49:08.401Z,161
2023-02-14T00:49:41.261Z,177
2023-02-14T00:50:12.833Z,177
2023-02-14T00:50:45.218Z,175
2023-02-14T00:51:16.499Z,175
2023-02-14T00:51:49.291Z,175
2023-02-14T00:52:20.421Z,175
2023-02-14T00:52:54.167Z,175
2023-02-14T00:53:24.604Z,101
2023-02-14T00:53:57.229Z,99
2023-02-14T00:54:28.428Z,99
2023-02-14T00:55:01.628Z,98
2023-02-14T00:55:32.693Z,98
2023-02-14T00:56:05.178Z,101
2023-02-14T00:56:36.379Z,101
2023-02-14T00:57:09.390Z,101
2023-02-14T00:57:40.500Z,101
2023-02-14T00:58:13.106Z,101
2023-02-14T00:58:44.444Z,102
2023-02-14T00:59:17.330Z,102
2023-02-14T00:59:48.267Z,102
2023-02-14T01:00:22.382Z,102
2023-02-14T01:00:52.619Z,102
2023-02-14T01:01:25.479Z,102
2023-02-14T01:01:56.312Z,102
2023-02-14T01:02:29.430Z,102
2023-02-14T01:03:00.534Z,102
2023-02-14T01:03:33.191Z,102
2023-02-14T01:04:04.358Z,102
2023-02-14T01:04:37.291Z,101
2023-02-14T01:05:08.700Z,101
2023-02-14T01:05:41.214Z,110
2023-02-14T01:06:12.435Z,110
2023-02-14T01:06:45.300Z,110
2023-02-14T01:07:16.290Z,110
2023-02-14T01:07:49.188Z,110
2023-02-14T01:08:20.503Z,110
2023-02-14T01:08:53.250Z,119
2023-02-14T01:09:24.420Z,103
2023-02-14T01:09:57.339Z,103
2023-02-14T01:10:28.972Z,103
2023-02-14T01:11:01.729Z,103
2023-02-14T01:11:32.497Z,103
2023-02-14T01:12:05.353Z,103
2023-02-14T01:12:36.366Z,103
2023-02-14T01:13:09.261Z,103
2023-02-14T01:13:40.411Z,110
2023-02-14T01:14:13.415Z,99
2023-02-14T01:14:44.341Z,108
2023-02-14T01:15:18.265Z,117
2023-02-14T01:15:48.536Z,108
2023-02-14T01:18:12.418Z,108
2023-02-14T01:18:44.493Z,108
2023-02-14T01:19:16.342Z,108
2023-02-14T01:19:34.372Z,115
2023-02-14T01:20:04.846Z,108
2023-02-14T01:20:37.311Z,108
2023-02-14T01:21:41.341Z,99
2023-02-14T01:30:45.839Z,106
2023-02-14T01:31:17.495Z,106
2023-02-14T01:31:48.506Z,106
2023-02-14T01:32:21.244Z,106
2023-02-14T01:32:52.592Z,99
2023-02-14T01:33:25.077Z,99
2023-02-14T01:33:56.491Z,99
2023-02-14T01:34:29.422Z,106
2023-02-14T01:35:00.889Z,106
2023-02-14T01:35:33.223Z,106
2023-02-14T01:36:37.400Z,106
2023-02-14T01:37:08.531Z,106
2023-02-14T01:37:41.301Z,106
2023-02-14T01:38:12.473Z,128
2023-02-14T01:38:45.170Z,128
2023-02-14T01:39:16.410Z,129
2023-02-14T01:39:49.229Z,129
2023-02-14T01:40:20.852Z,129
2023-02-14T01:40:53.249Z,129
2023-02-14T01:41:24.475Z,129
2023-02-14T01:41:57.108Z,130
2023-02-14T01:42:28.440Z,130
2023-02-14T01:43:01.384Z,130
2023-02-14T01:43:32.545Z,130
2023-02-14T01:44:05.257Z,130
2023-02-14T01:44:36.466Z,130
2023-02-14T01:45:10.517Z,132
2023-02-14T01:45:40.735Z,132
2023-02-14T01:46:13.404Z,132
2023-02-14T01:46:44.561Z,132
2023-02-14T01:47:17.522Z,148
2023-02-14T01:47:48.410Z,148
2023-02-14T01:48:21.257Z,148
2023-02-14T01:48:52.455Z,86
2023-02-14T01:49:25.348Z,87
2023-02-14T01:49:56.393Z,89
2023-02-14T01:50:30.254Z,132
2023-02-14T01:51:00.980Z,95
2023-02-14T01:51:33.259Z,104
2023-02-14T01:52:04.558Z,81
2023-02-14T01:52:37.280Z,89
2023-02-14T01:53:08.546Z,89
2023-02-14T01:53:41.226Z,89
2023-02-14T01:54:12.422Z,89
2023-02-14T01:54:45.344Z,89
2023-02-14T01:55:16.753Z,89
2023-02-14T01:55:49.159Z,104
2023-02-14T01:56:20.527Z,94
2023-02-14T01:56:53.057Z,94
2023-02-14T01:57:24.362Z,94
2023-02-14T01:57:57.310Z,94
2023-02-14T01:58:28.596Z,109
2023-02-14T01:59:01.148Z,109
2023-02-14T01:59:32.543Z,100
2023-02-14T02:00:06.653Z,100
2023-02-14T02:00:36.649Z,100
2023-02-14T02:01:14.285Z,100
2023-02-14T02:01:40.313Z,99
2023-02-14T02:02:12.535Z,99
2023-02-14T02:02:44.395Z,100
2023-02-14T02:03:16.485Z,100
2023-02-14T02:03:48.504Z,108
2023-02-14T02:04:20.460Z,108
2023-02-14T02:04:53.356Z,108
2023-02-14T02:05:24.796Z,108
2023-02-14T02:05:57.325Z,108
2023-02-14T02:06:28.436Z,113
2023-02-14T02:07:01.294Z,108
2023-02-14T02:07:32.448Z,104
2023-02-14T02:08:05.257Z,108
2023-02-14T02:08:36.378Z,109
2023-02-14T02:09:09.337Z,137
2023-02-14T02:09:40.480Z,137
2023-02-14T02:10:13.510Z,109
2023-02-14T02:10:44.563Z,109
2023-02-14T02:11:17.419Z,109
2023-02-14T02:11:48.304Z,113
2023-02-14T02:12:21.331Z,109
2023-02-14T02:12:52.561Z,133
2023-02-14T02:13:25.409Z,104
2023-02-14T02:13:56.381Z,97
2023-02-14T02:14:29.317Z,106
2023-02-14T02:15:01.802Z,106
2023-02-14T02:15:33.395Z,106
2023-02-14T02:16:04.386Z,101
2023-02-14T02:16:37.314Z,92
2023-02-14T02:17:08.530Z,100
2023-02-14T02:17:41.297Z,100
2023-02-14T02:18:12.374Z,100
2023-02-14T02:18:45.418Z,100
2023-02-14T02:19:16.327Z,100
2023-02-14T02:19:49.106Z,100
2023-02-14T02:20:20.803Z,100
2023-02-14T02:20:53.632Z,95
2023-02-14T02:21:24.412Z,95
2023-02-14T02:21:57.413Z,100
2023-02-14T02:22:28.518Z,100
2023-02-14T02:23:01.336Z,100
2023-02-14T02:23:32.611Z,102
2023-02-14T02:24:05.419Z,97
2023-02-14T02:24:36.622Z,97
2023-02-14T02:25:09.557Z,97
2023-02-14T02:25:40.518Z,97
2023-02-14T02:26:13.398Z,97
2023-02-14T02:26:44.345Z,97
2023-02-14T02:27:17.383Z,97
2023-02-14T02:27:48.479Z,127
2023-02-14T02:28:21.654Z,97
2023-02-14T02:28:52.374Z,84
2023-02-14T02:29:25.254Z,93
2023-02-14T02:29:56.598Z,91
2023-02-14T02:30:30.500Z,97
2023-02-14T02:31:01.005Z,97
2023-02-14T02:31:33.604Z,102
2023-02-14T02:32:04.835Z,102
2023-02-14T02:32:38.255Z,101
2023-02-14T02:33:08.461Z,101
2023-02-14T02:33:41.274Z,97
2023-02-14T02:34:12.405Z,101
2023-02-14T02:34:45.312Z,101
2023-02-14T02:35:16.877Z,101
2023-02-14T02:35:49.166Z,101
2023-02-14T02:36:20.456Z,127
2023-02-14T02:36:53.318Z,84
2023-02-14T02:37:24.631Z,84
2023-02-14T02:37:57.539Z,122
2023-02-14T02:38:28.528Z,127
2023-02-14T02:39:01.355Z,127
2023-02-14T02:39:32.455Z,127
2023-02-14T02:40:06.411Z,122
2023-02-14T02:40:36.580Z,122
2023-02-14T02:41:09.273Z,122
2023-02-14T02:41:40.468Z,122
2023-02-14T02:42:13.483Z,122
2023-02-14T02:42:44.548Z,122
2023-02-14T02:43:17.138Z,122
2023-02-14T02:43:48.411Z,122
2023-02-14T02:44:21.516Z,122
2023-02-14T02:44:52.542Z,106
2023-02-14T02:45:26.550Z,122
2023-02-14T02:45:56.579Z,106
2023-02-14T02:46:29.576Z,141
2023-02-14T02:47:00.450Z,123
2023-02-14T02:47:33.325Z,123
2023-02-14T02:48:04.502Z,123
2023-02-14T02:48:37.588Z,114
2023-02-14T02:49:08.368Z,114
2023-02-14T02:49:41.371Z,114
2023-02-14T02:50:12.867Z,114
2023-02-14T02:50:45.278Z,105
2023-02-14T02:51:16.564Z,105
2023-02-14T02:51:49.198Z,179
2023-02-14T02:52:20.793Z,105
2023-02-14T02:52:53.307Z,123
2023-02-14T02:53:24.482Z,123
2023-02-14T02:53:57.467Z,123
2023-02-14T02:54:28.412Z,123
2023-02-14T02:55:01.768Z,123
2023-02-14T02:55:32.494Z,132
2023-02-14T02:56:05.348Z,132
2023-02-14T02:56:36.481Z,129
2023-02-14T02:57:09.553Z,179
2023-02-14T02:57:40.726Z,171
2023-02-14T02:58:13.092Z,171
2023-02-14T02:58:44.441Z,171
2023-02-14T02:59:17.243Z,171
2023-02-14T02:59:48.281Z,171
2023-02-14T03:00:22.541Z,171
2023-02-14T03:00:52.523Z,171
2023-02-14T03:01:25.417Z,171
2023-02-14T03:01:56.461Z,171
2023-02-14T03:02:29.467Z,171
2023-02-14T03:03:00.478Z,165
2023-02-14T03:03:33.207Z,171
2023-02-14T03:04:04.379Z,171
2023-02-14T03:04:37.511Z,171
2023-02-14T03:05:08.822Z,171
2023-02-14T03:05:41.130Z,145
2023-02-14T03:06:12.483Z,171
2023-02-14T03:06:45.197Z,140
2023-02-14T03:07:16.514Z,140
2023-02-14T03:07:49.361Z,140
2023-02-14T03:08:20.384Z,140
2023-02-14T03:08:53.373Z,140
2023-02-14T03:09:24.381Z,140
2023-02-14T03:09:57.199Z,140
2023-02-14T03:10:28.898Z,140
2023-02-14T03:11:01.521Z,118
2023-02-14T03:11:32.422Z,187
2023-02-14T03:12:05.520Z,140
2023-02-14T03:12:36.655Z,140
2023-02-14T03:13:09.243Z,140
2023-02-14T03:13:40.533Z,139
2023-02-14T03:14:14.395Z,159
2023-02-14T03:14:44.388Z,165
2023-02-14T03:15:01.997Z,161
2023-02-14T03:15:32.694Z,158
2023-02-14T03:16:04.451Z,115
2023-02-14T03:16:37.363Z,115
2023-02-14T03:17:08.503Z,117
2023-02-14T03:17:41.398Z,165
2023-02-14T03:18:12.545Z,165
2023-02-14T03:18:45.350Z,165
2023-02-14T03:19:16.546Z,167
2023-02-14T03:19:49.361Z,174
2023-02-14T03:20:20.912Z,172
2023-02-14T03:20:54.260Z,172
2023-02-14T03:21:24.357Z,178
2023-02-14T03:21:57.294Z,173
2023-02-14T03:22:28.532Z,173
2023-02-14T03:23:01.424Z,173
2023-02-14T03:23:32.434Z,173
2023-02-14T03:24:05.272Z,168
2023-02-14T03:24:36.504Z,168
2023-02-14T03:25:09.388Z,168
2023-02-14T03:25:40.403Z,173
2023-02-14T03:26:13.576Z,173
2023-02-14T03:26:44.343Z,173
2023-02-14T03:27:17.423Z,173
2023-02-14T03:27:48.543Z,173
2023-02-14T03:28:21.405Z,173
2023-02-14T03:28:52.376Z,173
2023-02-14T03:29:25.177Z,173
2023-02-14T03:29:56.580Z,166
2023-02-14T03:30:30.423Z,166
2023-02-14T03:31:00.899Z,165
2023-02-14T03:31:33.410Z,158
2023-02-14T03:32:04.757Z,158
2023-02-14T03:32:37.345Z,158
2023-02-14T03:33:08.422Z,158
2023-02-14T03:33:41.189Z,158
2023-02-14T03:34:12.566Z,158
2023-02-14T03:34:45.454Z,158
2023-02-14T03:35:16.761Z,158
2023-02-14T03:35:49.298Z,158
2023-02-14T03:36:20.515Z,149
2023-02-14T03:36:53.269Z,156
2023-02-14T03:37:24.542Z,149
2023-02-14T03:37:57.580Z,111
2023-02-14T03:38:28.400Z,111
2023-02-14T03:39:01.324Z,111
2023-02-14T03:39:32.576Z,111
2023-02-14T03:40:05.453Z,111
2023-02-14T03:40:36.473Z,111
2023-02-14T03:41:09.613Z,111
2023-02-14T03:41:40.342Z,111
2023-02-14T03:42:15.118Z,111
2023-02-14T03:42:44.466Z,111
2023-02-14T03:43:17.285Z,111
2023-02-14T03:43:48.432Z,103
2023-02-14T03:44:21.433Z,103
2023-02-14T03:44:52.560Z,103
2023-02-14T03:45:26.456Z,103
2023-02-14T03:45:56.669Z,103
2023-02-14T03:46:29.348Z,96
2023-02-14T03:47:00.633Z,96
2023-02-14T03:47:33.148Z,94
2023-02-14T03:48:04.437Z,94
2023-02-14T03:48:37.338Z,94
2023-02-14T03:49:08.404Z,117
2023-02-14T03:49:41.197Z,93
2023-02-14T03:50:12.660Z,93
2023-02-14T03:50:45.416Z,90
2023-02-14T03:51:16.395Z,90
2023-02-14T03:51:49.257Z,90
2023-02-14T03:52:20.545Z,90
2023-02-14T03:52:53.410Z,89
2023-02-14T03:53:24.424Z,93
2023-02-14T03:53:57.241Z,100
2023-02-14T03:54:28.582Z,100
2023-02-14T03:55:01.650Z,105
2023-02-14T03:55:32.462Z,105
2023-02-14T03:56:05.297Z,91
2023-02-14T03:56:36.451Z,91
2023-02-14T03:57:09.176Z,122
2023-02-14T03:57:40.496Z,113
2023-02-14T03:58:13.466Z,109
2023-02-14T03:58:44.329Z,109
2023-02-14T03:59:00.673Z,109
2023-02-14T03:59:32.302Z,109
2023-02-14T04:00:05.850Z,109
2023-02-14T04:00:36.405Z,109
2023-02-14T04:01:08.411Z,109
2023-02-14T04:01:41.387Z,109
2023-02-14T04:02:12.487Z,109
2023-02-14T04:02:47.007Z,109
2023-02-14T04:03:16.433Z,109
2023-02-14T04:03:32.698Z,113
2023-02-14T04:04:04.310Z,117
2023-02-14T04:04:36.373Z,72
2023-02-14T04:05:09.388Z,93
2023-02-14T04:05:40.545Z,117
2023-02-14T04:06:13.254Z,117
2023-02-14T04:06:44.441Z,125
2023-02-14T04:07:17.313Z,117
2023-02-14T04:07:48.345Z,117
2023-02-14T04:08:21.236Z,117
2023-02-14T04:08:52.424Z,74
2023-02-14T04:09:25.282Z,117
2023-02-14T04:09:56.515Z,117
2023-02-14T04:10:29.692Z,117
2023-02-14T04:11:00.960Z,117
2023-02-14T04:11:33.135Z,117
2023-02-14T04:12:04.405Z,116
2023-02-14T04:12:38.159Z,146
2023-02-14T04:13:08.627Z,108
2023-02-14T04:13:41.234Z,108
2023-02-14T04:14:12.424Z,108
2023-02-14T04:14:45.304Z,87
2023-02-14T04:15:17.330Z,117
2023-02-14T04:15:32.974Z,96
2023-02-14T04:16:04.383Z,96
2023-02-14T04:16:36.402Z,120
2023-02-14T04:17:08.481Z,112
2023-02-14T04:17:40.488Z,112
2023-02-14T04:18:12.383Z,112
2023-02-14T04:18:44.523Z,112
2023-02-14T04:19:16.520Z,96
2023-02-14T04:19:48.355Z,96
2023-02-14T04:20:21.692Z,96
2023-02-14T04:20:52.538Z,112
2023-02-14T04:21:25.412Z,112
2023-02-14T04:21:56.389Z,112
2023-02-14T04:22:29.337Z,112
2023-02-14T04:23:03.186Z,112
2023-02-14T04:23:33.251Z,112
2023-02-14T04:24:04.417Z,112
2023-02-14T04:24:37.304Z,112
2023-02-14T04:25:08.805Z,112
2023-02-14T04:25:41.180Z,112
2023-02-14T04:26:12.617Z,94
2023-02-14T04:26:45.410Z,94
2023-02-14T04:27:16.448Z,94
2023-02-14T04:27:49.377Z,85
2023-02-14T04:28:20.681Z,85
2023-02-14T04:28:53.453Z,94
2023-02-14T04:29:24.496Z,94
2023-02-14T04:29:57.281Z,88
2023-02-14T04:30:29.988Z,109
2023-02-14T04:31:01.984Z,114
2023-02-14T04:31:32.612Z,101
2023-02-14T04:32:05.524Z,101
2023-02-14T04:32:36.678Z,101
2023-02-14T04:33:09.241Z,81
2023-02-14T04:33:40.578Z,94
2023-02-14T04:34:14.270Z,94
2023-02-14T04:34:44.421Z,94
2023-02-14T04:35:17.549Z,102
2023-02-14T04:35:48.515Z,102
2023-02-14T04:36:21.448Z,94
2023-02-14T04:36:52.353Z,102
2023-02-14T04:37:25.410Z,109
2023-02-14T04:37:56.551Z,109
2023-02-14T04:38:29.110Z,109
2023-02-14T04:39:00.455Z,115
2023-02-14T04:39:33.299Z,109
2023-02-14T04:40:04.855Z,104
2023-02-14T04:40:37.336Z,104
2023-02-14T04:41:08.524Z,109
2023-02-14T04:41:41.067Z,122
2023-02-14T04:42:12.431Z,122
2023-02-14T04:42:45.501Z,143
2023-02-14T04:43:16.485Z,117
2023-02-14T04:43:49.183Z,117
2023-02-14T04:44:20.504Z,117
2023-02-14T04:44:53.324Z,117
2023-02-14T04:45:25.471Z,117
2023-02-14T04:45:57.710Z,117
2023-02-14T04:46:28.602Z,117
2023-02-14T04:47:01.483Z,117
2023-02-14T04:47:32.474Z,117
2023-02-14T04:48:05.579Z,117
2023-02-14T04:48:36.580Z,117
2023-02-14T04:49:09.533Z,142
2023-02-14T04:49:40.522Z,142
2023-02-14T04:50:13.687Z,142
2023-02-14T04:50:44.664Z,142
2023-02-14T04:51:18.099Z,142
2023-02-14T04:51:48.453Z,142
2023-02-14T04:52:21.520Z,142
2023-02-14T04:52:52.486Z,142
2023-02-14T04:53:25.346Z,142
2023-02-14T04:53:56.646Z,115
2023-02-14T04:54:29.529Z,115
2023-02-14T04:55:00.795Z,115
2023-02-14T04:55:33.323Z,115
2023-02-14T04:56:04.470Z,115
2023-02-14T04:56:37.293Z,115
2023-02-14T04:57:08.440Z,115
2023-02-14T04:57:41.334Z,115
2023-02-14T04:58:12.528Z,115
2023-02-14T04:58:45.374Z,115
2023-02-14T04:59:16.484Z,115
2023-02-14T04:59:49.291Z,115
2023-02-14T05:00:22.059Z,115
2023-02-14T05:00:53.275Z,113
2023-02-14T05:01:24.463Z,113
2023-02-14T05:01:57.573Z,113
2023-02-14T05:02:28.533Z,113
2023-02-14T05:03:01.589Z,113
2023-02-14T05:03:32.588Z,113
2023-02-14T05:04:05.334Z,113
2023-02-14T05:04:36.522Z,113
2023-02-14T05:05:10.486Z,116
2023-02-14T05:05:40.525Z,109
2023-02-14T05:06:13.374Z,68
2023-02-14T05:06:44.517Z,76
2023-02-14T05:07:17.571Z,68
2023-02-14T05:07:48.337Z,68
2023-02-14T05:08:22.201Z,76
2023-02-14T05:08:52.506Z,68
2023-02-14T05:09:25.513Z,68
2023-02-14T05:09:56.427Z,68
2023-02-14T05:10:29.773Z,68
2023-02-14T05:11:00.930Z,109
2023-02-14T05:11:33.194Z,94
2023-02-14T05:12:04.367Z,94
2023-02-14T05:12:37.470Z,80
2023-02-14T05:13:08.335Z,79
2023-02-14T05:13:41.356Z,74
2023-02-14T05:14:12.478Z,72
2023-02-14T05:14:45.346Z,72
2023-02-14T05:15:17.347Z,72
2023-02-14T05:15:49.689Z,72
2023-02-14T05:16:20.533Z,72
2023-02-14T05:16:53.174Z,74
2023-02-14T05:17:24.494Z,79
2023-02-14T05:17:57.312Z,72
2023-02-14T05:18:28.571Z,109
2023-02-14T05:19:02.244Z,101
2023-02-14T05:19:32.440Z,109
2023-02-14T05:20:05.383Z,109
2023-02-14T05:20:36.296Z,101
2023-02-14T05:21:09.430Z,88
2023-02-14T05:21:40.511Z,88
2023-02-14T05:22:13.545Z,96
2023-02-14T05:22:44.456Z,96
2023-02-14T05:23:00.690Z,96
2023-02-14T05:23:32.420Z,96
2023-02-14T05:24:04.460Z,96
2023-02-14T05:24:37.547Z,96
2023-02-14T05:25:08.905Z,96
2023-02-14T05:25:41.256Z,96
2023-02-14T05:26:12.493Z,96
2023-02-14T05:26:45.456Z,96
2023-02-14T05:27:16.337Z,98
2023-02-14T05:27:32.669Z,89
2023-02-14T05:28:04.422Z,95
2023-02-14T05:28:36.491Z,95
2023-02-14T05:29:09.290Z,95
2023-02-14T05:29:40.579Z,106
2023-02-14T05:30:14.334Z,87
2023-02-14T05:30:44.787Z,89
2023-02-14T05:31:17.366Z,89
2023-02-14T05:31:48.515Z,82
2023-02-14T05:32:21.410Z,84
2023-02-14T05:32:52.530Z,87
2023-02-14T05:33:25.435Z,87
2023-02-14T05:33:56.406Z,78
2023-02-14T05:34:29.416Z,78
2023-02-14T05:35:01.339Z,78
2023-02-14T05:35:33.365Z,78
2023-02-14T05:36:04.460Z,78
2023-02-14T05:36:37.233Z,78
2023-02-14T05:37:08.573Z,78
2023-02-14T05:37:41.353Z,78
2023-02-14T05:38:12.488Z,78
2023-02-14T05:38:45.341Z,78
2023-02-14T05:39:16.471Z,78
2023-02-14T05:39:49.279Z,78
2023-02-14T05:40:20.958Z,77
2023-02-14T05:40:53.233Z,77
2023-02-14T05:41:24.486Z,77
2023-02-14T05:41:59.285Z,77
2023-02-14T05:42:28.472Z,77
2023-02-14T05:43:01.335Z,117
2023-02-14T05:43:32.466Z,117
2023-02-14T05:44:05.400Z,117
2023-02-14T05:44:36.431Z,117
2023-02-14T05:45:10.405Z,117
2023-02-14T05:45:40.690Z,117
2023-02-14T05:46:13.618Z,117
2023-02-14T05:46:44.506Z,117
2023-02-14T05:47:00.689Z,117
2023-02-14T05:47:32.513Z,117
2023-02-14T05:48:04.600Z,117
2023-02-14T05:48:36.609Z,117
2023-02-14T05:49:08.591Z,117
2023-02-14T05:49:40.493Z,109
2023-02-14T05:50:12.928Z,193
2023-02-14T05:50:44.653Z,109
2023-02-14T05:51:16.600Z,109
2023-02-14T05:51:35.620Z,109
2023-02-14T05:52:04.461Z,109
2023-02-14T05:52:37.430Z,109
2023-02-14T05:53:08.543Z,119
2023-02-14T05:53:41.547Z,113
2023-02-14T05:54:12.434Z,113
2023-02-14T05:54:45.288Z,113
2023-02-14T05:55:16.804Z,113
2023-02-14T05:55:49.343Z,113
2023-02-14T05:56:20.515Z,113
2023-02-14T05:56:53.380Z,113
2023-02-14T05:57:24.580Z,113
2023-02-14T05:57:58.715Z,113
2023-02-14T05:58:28.467Z,113
2023-02-14T05:59:01.490Z,113
2023-02-14T05:59:32.467Z,113
2023-02-14T06:00:07.666Z,85
2023-02-14T06:00:36.806Z,85
2023-02-14T06:01:09.418Z,84
2023-02-14T06:01:40.526Z,84
2023-02-14T06:02:13.541Z,84
2023-02-14T06:02:44.695Z,85
2023-02-14T06:03:17.474Z,85
2023-02-14T06:03:48.471Z,85
2023-02-14T06:04:21.720Z,85
2023-02-14T06:04:52.521Z,85
2023-02-14T06:05:25.882Z,85
2023-02-14T06:05:56.634Z,88
2023-02-14T06:06:29.276Z,88
2023-02-14T06:07:00.560Z,88
2023-02-14T06:07:33.628Z,88
2023-02-14T06:08:04.678Z,88
2023-02-14T06:08:37.479Z,88
2023-02-14T06:09:08.527Z,88
2023-02-14T06:09:41.395Z,88
2023-02-14T06:10:12.779Z,118
2023-02-14T06:10:45.551Z,141
2023-02-14T06:11:16.504Z,118
2023-02-14T06:11:49.195Z,110
2023-02-14T06:12:20.618Z,158
2023-02-14T06:12:53.578Z,150
2023-02-14T06:13:24.593Z,150
2023-02-14T06:13:57.244Z,152
2023-02-14T06:14:28.535Z,116
2023-02-14T06:15:03.039Z,152
2023-02-14T06:15:32.532Z,152
2023-02-14T06:16:05.384Z,146
2023-02-14T06:16:36.673Z,150
2023-02-14T06:17:09.605Z,153
2023-02-14T06:17:40.562Z,150
2023-02-14T06:18:13.412Z,153
2023-02-14T06:18:44.594Z,153
2023-02-14T06:19:17.396Z,153
2023-02-14T06:19:48.460Z,156
2023-02-14T06:20:21.888Z,148
2023-02-14T06:20:52.458Z,148
2023-02-14T06:21:25.402Z,148
2023-02-14T06:21:56.641Z,143
2023-02-14T06:22:30.692Z,143
2023-02-14T06:23:00.405Z,116
2023-02-14T06:23:33.436Z,143
2023-02-14T06:24:04.556Z,143
2023-02-14T06:24:37.644Z,116
2023-02-14T06:25:08.677Z,110
2023-02-14T06:25:41.384Z,108
2023-02-14T06:26:12.567Z,108
2023-02-14T06:26:46.288Z,108
2023-02-14T06:27:16.493Z,103
2023-02-14T06:27:49.554Z,112
2023-02-14T06:28:20.604Z,108
2023-02-14T06:28:53.326Z,108
2023-02-14T06:29:24.429Z,108
2023-02-14T06:29:57.513Z,108
2023-02-14T06:30:29.750Z,99
2023-02-14T06:31:01.822Z,108
2023-02-14T06:31:32.625Z,108
2023-02-14T06:32:05.543Z,108
2023-02-14T06:32:36.680Z,108
2023-02-14T06:33:09.300Z,108
2023-02-14T06:33:40.639Z,108
2023-02-14T06:34:14.807Z,104
2023-02-14T06:34:44.467Z,108
2023-02-14T06:35:01.023Z,108
2023-02-14T06:35:32.508Z,117
2023-02-14T06:36:04.495Z,106
2023-02-14T06:36:36.631Z,109
2023-02-14T06:37:08.535Z,113
2023-02-14T06:37:41.454Z,105
2023-02-14T06:38:12.529Z,105
2023-02-14T06:38:45.385Z,113
2023-02-14T06:39:16.576Z,113
2023-02-14T06:39:49.301Z,92
2023-02-14T06:40:20.917Z,92
2023-02-14T06:40:53.509Z,92
2023-02-14T06:41:24.575Z,113
2023-02-14T06:41:57.663Z,96
2023-02-14T06:42:28.337Z,96
2023-02-14T06:43:01.400Z,94
2023-02-14T06:43:32.588Z,94
2023-02-14T06:44:06.326Z,94
2023-02-14T06:44:36.675Z,94
2023-02-14T06:45:10.685Z,94
2023-02-14T06:45:40.817Z,94
2023-02-14T06:46:14.550Z,94
2023-02-14T06:46:44.707Z,94
2023-02-14T06:47:17.714Z,94
2023-02-14T06:47:48.904Z,94
2023-02-14T06:48:21.672Z,94
2023-02-14T06:48:52.802Z,94
2023-02-14T06:49:25.940Z,98
2023-02-14T06:49:56.636Z,103
2023-02-14T06:50:29.776Z,105
2023-02-14T06:51:01.227Z,105
2023-02-14T06:51:33.768Z,105
2023-02-14T06:52:04.656Z,105
2023-02-14T06:52:37.896Z,105
2023-02-14T06:53:08.782Z,103
2023-02-14T06:53:41.784Z,103
2023-02-14T06:54:12.761Z,94
2023-02-14T06:54:45.626Z,107
2023-02-14T06:55:16.948Z,94
2023-02-14T06:55:49.597Z,83
2023-02-14T06:56:20.760Z,105
2023-02-14T06:56:53.724Z,105
2023-02-14T06:57:24.709Z,105
2023-02-14T06:57:57.699Z,105
2023-02-14T06:58:28.770Z,105
2023-02-14T06:59:01.600Z,105
2023-02-14T06:59:32.732Z,105
2023-02-14T07:00:07.156Z,105
2023-02-14T07:00:36.814Z,105
2023-02-14T07:01:09.571Z,105
2023-02-14T07:01:40.815Z,105
2023-02-14T07:02:13.699Z,103
2023-02-14T07:02:44.752Z,88
2023-02-14T07:03:01.024Z,104
2023-02-14T07:03:32.927Z,110
2023-02-14T07:04:04.750Z,110
2023-02-14T07:04:37.779Z,85
2023-02-14T07:05:09.140Z,104
2023-02-14T07:05:41.436Z,110
2023-02-14T07:06:12.689Z,110
2023-02-14T07:06:45.816Z,100
2023-02-14T07:07:16.584Z,100
2023-02-14T07:07:49.598Z,100
2023-02-14T07:08:20.770Z,107
2023-02-14T07:08:53.570Z,107
2023-02-14T07:09:24.704Z,107
2023-02-14T07:09:57.623Z,134
2023-02-14T07:10:29.111Z,107
2023-02-14T07:11:02.145Z,107
2023-02-14T07:11:32.871Z,104
2023-02-14T07:12:05.664Z,104
2023-02-14T07:12:36.877Z,104
2023-02-14T07:13:09.415Z,107
2023-02-14T07:13:40.729Z,107
2023-02-14T07:14:13.479Z,107
2023-02-14T07:14:44.721Z,107
2023-02-14T07:15:18.538Z,113
2023-02-14T07:15:48.891Z,156
2023-02-14T07:16:21.806Z,162
2023-02-14T07:16:52.828Z,174
2023-02-14T07:17:25.806Z,115
2023-02-14T07:17:56.919Z,174
2023-02-14T07:18:29.672Z,174
2023-02-14T07:19:00.707Z,178
2023-02-14T07:19:33.749Z,178
2023-02-14T07:20:05.184Z,178
2023-02-14T07:20:38.435Z,178
2023-02-14T07:21:08.885Z,187
2023-02-14T07:21:41.958Z,187
2023-02-14T07:22:12.720Z,187
2023-02-14T07:22:45.812Z,133
2023-02-14T07:23:17.002Z,141
2023-02-14T07:23:50.039Z,141
2023-02-14T07:24:20.834Z,136
2023-02-14T07:24:53.626Z,145
2023-02-14T07:25:25.156Z,141
2023-02-14T07:25:57.489Z,133
2023-02-14T07:26:28.769Z,133
2023-02-14T07:27:01.587Z,141
2023-02-14T07:27:32.956Z,141
2023-02-14T07:28:05.607Z,141
2023-02-14T07:28:36.728Z,141
2023-02-14T07:29:09.781Z,141
2023-02-14T07:29:40.798Z,162
2023-02-14T07:30:14.435Z,162
2023-02-14T07:30:44.948Z,151
2023-02-14T07:31:17.722Z,151
2023-02-14T07:31:48.810Z,151
2023-02-14T07:32:22.810Z,151
2023-02-14T07:32:52.819Z,151
2023-02-14T07:33:25.823Z,184
2023-02-14T07:33:56.737Z,183